Weather History for KHNR - February, 2014

Change the Weather History Date:

Monday, February 3, 2014

  Actual Average (KOMA) Record (KOMA)
Temperature  
Mean Temperature 16 °F 25 °F  
Max Temperature 30 °F 35 °F 65 °F (1934)
Min Temperature 1 °F 15 °F -20 °F (1996)
Degree Days  
Heating Degree Days 50 40  
Month to date heating degree days 120  
Since 1 July heating degree days 3885  
Cooling Degree Days 0 0  
Month to date cooling degree days 0  
Year to date cooling degree days 0  
Moisture  
Dew Point 9 °F    
Average Humidity 72    
Maximum Humidity 85    
Minimum Humidity 55    
Precipitation  
Precipitation 0.00 in 0.03 in 0.46 in (1903)
Month to date precipitation 0.08  
Year to date precipitation 0.80  
Snow  
Snow 0.00 in 0.20 in - ()
Month to date snowfall 0.7  
Since 1 July snowfall 15.8  
Snow Depth -    
Sea Level Pressure  
Sea Level Pressure 30.26 in    
Wind  
Wind Speed 8 mph (South)    
Max Wind Speed 17 mph    
Max Gust Speed 22 mph    
Visibility 10 miles    
Events      
T = Trace of Precipitation, MM = Missing Value Source: NWS Daily Summary

Daily Weather History Graph

Daily Weather History Graph

Search for Another Location

Airport or City:

Trip Planner

Search our weather history database for the weather conditions in past years. The results will help you decide how hot, cold, wet, or windy it might be!

Date:

Astronomy

Feb. 03, 2014 Rise Set
Actual Time 7:31 AM CST 5:39 PM CST
Civil Twilight 7:01 AM CST 6:09 PM CST
Nautical Twilight 6:28 AM CST 6:42 PM CST
Astronomical Twilight 5:56 AM CST 7:14 PM CST
Moon 9:29 AM CST (2/3) 10:35 PM CST (2/3)
Length of Visible Light 11h 07m
Length of Day
10h 08m
Waxing Crescent, 20% of the Moon is Illuminated
Feb 3
Waxing Crescent
Feb 6
First Quarter
Feb 14
Full
Feb 22
Last Quarter
Mar 1
New

Hourly Weather History & Observations

Time (CST) Temp. Windchill Dew Point Humidity Pressure Visibility Wind Dir Wind Speed Gust Speed Precip Events Conditions
12:15 AM 5.0 °F -5.6 °F -0.4 °F 78% 30.27 in 10.0 mi SSW 5.8 mph - N/A   Clear
12:35 AM 3.2 °F -6.2 °F -0.4 °F 85% 30.27 in 10.0 mi SSW 4.6 mph - N/A   Clear
12:55 AM 3.2 °F -6.2 °F -0.4 °F 85% 30.27 in 10.0 mi South 4.6 mph - N/A   Clear
1:15 AM 3.2 °F -4.2 °F -0.4 °F 85% 30.26 in 10.0 mi SSW 3.5 mph - N/A   Clear
1:35 AM 3.2 °F -7.8 °F -0.4 °F 85% 30.26 in 10.0 mi SSW 5.8 mph - N/A   Clear
1:55 AM 1.4 °F -8.3 °F -2.2 °F 85% 30.26 in 10.0 mi SSW 4.6 mph - N/A   Clear
2:15 AM 1.4 °F -9.9 °F -2.2 °F 85% 30.27 in 10.0 mi SSW 5.8 mph - N/A   Clear
2:35 AM 1.4 °F -11.3 °F -2.2 °F 85% 30.27 in 10.0 mi SSW 6.9 mph - N/A   Clear
2:55 AM 1.4 °F -11.3 °F -4.0 °F 78% 30.27 in 10.0 mi SSW 6.9 mph - N/A   Clear
3:15 AM 3.2 °F -10.3 °F -0.4 °F 85% 30.27 in 10.0 mi SSW 8.1 mph - N/A   Clear
3:35 AM 5.0 °F -9.1 °F -0.4 °F 78% 30.26 in 10.0 mi SSW 9.2 mph - N/A   Clear
3:55 AM 5.0 °F -10.0 °F -0.4 °F 78% 30.26 in 10.0 mi SSW 10.4 mph - N/A   Clear
4:15 AM 5.0 °F -10.0 °F -0.4 °F 78% 30.25 in 10.0 mi SSW 10.4 mph - N/A   Clear
4:35 AM 5.0 °F -10.8 °F -0.4 °F 78% 30.25 in 10.0 mi SSW 11.5 mph - N/A   Clear
4:55 AM 5.0 °F -10.0 °F -0.4 °F 78% 30.25 in 10.0 mi South 10.4 mph - N/A   Clear
5:15 AM 3.2 °F -10.3 °F -2.2 °F 78% 30.25 in 10.0 mi SSW 8.1 mph - N/A   Clear
5:35 AM 5.0 °F -10.0 °F -0.4 °F 78% 30.25 in 10.0 mi SSW 10.4 mph - N/A   Clear
5:55 AM 5.0 °F -9.1 °F -0.4 °F 78% 30.25 in 10.0 mi SSW 9.2 mph - N/A   Clear
6:15 AM 5.0 °F -10.8 °F -0.4 °F 78% 30.26 in 10.0 mi SSW 11.5 mph - N/A   Clear
6:35 AM 5.0 °F -9.1 °F -0.4 °F 78% 30.26 in 10.0 mi South 9.2 mph - N/A   Clear
6:55 AM 5.0 °F -10.0 °F -0.4 °F 78% 30.25 in 10.0 mi SSW 10.4 mph - N/A   Clear
7:15 AM 5.0 °F -10.0 °F -0.4 °F 78% 30.25 in 10.0 mi SSW 10.4 mph - N/A   Clear
7:35 AM 5.0 °F -10.0 °F -0.4 °F 78% 30.26 in 10.0 mi SSW 10.4 mph - N/A   Clear
7:55 AM 5.0 °F -8.1 °F -0.4 °F 78% 30.27 in 10.0 mi SSW 8.1 mph - N/A   Clear
8:15 AM 5.0 °F -9.1 °F -0.4 °F 78% 30.27 in 10.0 mi SSW 9.2 mph - N/A   Clear
8:35 AM 6.8 °F -9.3 °F 1.4 °F 79% 30.28 in 10.0 mi SSW 12.7 mph - N/A   Clear
8:55 AM 8.6 °F -6.3 °F 3.2 °F 79% 30.29 in 10.0 mi South 11.5 mph - N/A   Clear
9:15 AM 10.4 °F -3.3 °F 5.0 °F 79% 30.29 in 10.0 mi South 10.4 mph - N/A   Clear
9:35 AM 12.2 °F -1.0 °F 5.0 °F 73% 30.28 in 10.0 mi South 10.4 mph - N/A   Clear
9:55 AM 14.0 °F 2.0 °F 6.8 °F 73% 30.28 in 10.0 mi South 9.2 mph - N/A   Clear
10:15 AM 15.8 °F 2.7 °F 8.6 °F 73% 30.28 in 10.0 mi South 11.5 mph - N/A   Clear
10:35 AM 17.6 °F 5.0 °F 10.4 °F 73% 30.27 in 10.0 mi SSW 11.5 mph - N/A   Clear
10:55 AM 19.4 °F 7.9 °F 12.2 °F 74% 30.27 in 10.0 mi South 10.4 mph - N/A   Clear
11:15 AM 21.2 °F 10.1 °F 12.2 °F 68% 30.27 in 10.0 mi South 10.4 mph - N/A   Clear
11:35 AM 21.2 °F 8.9 °F 14.0 °F 74% 30.27 in 10.0 mi SSW 12.7 mph - N/A   Clear
11:55 AM 23.0 °F 10.6 °F 14.0 °F 68% 30.26 in 10.0 mi SSW 13.8 mph - N/A   Scattered Clouds
12:15 PM 24.8 °F 12.4 °F 14.0 °F 64% 30.26 in 10.0 mi SW 15.0 mph - N/A   Mostly Cloudy
12:35 PM 26.6 °F 15.2 °F 15.8 °F 64% 30.25 in - SW 13.8 mph 21.9 mph N/A   Mostly Cloudy
12:55 PM 26.6 °F 15.2 °F 15.8 °F 64% 30.24 in 10.0 mi SSW 13.8 mph - N/A   Mostly Cloudy
1:15 PM 28.4 °F 17.0 °F 17.6 °F 64% 30.24 in 10.0 mi SW 15.0 mph 21.9 mph N/A   Overcast
1:35 PM 30.2 °F 18.5 °F 17.6 °F 60% 30.23 in 10.0 mi SW 17.3 mph - N/A   Mostly Cloudy
1:55 PM 30.2 °F 19.8 °F 17.6 °F 60% 30.23 in 10.0 mi SSW 13.8 mph 19.6 mph N/A   Scattered Clouds
2:15 PM 30.2 °F 19.8 °F 15.8 °F 55% 30.22 in 10.0 mi SSW 13.8 mph - N/A   Mostly Cloudy
2:35 PM 30.2 °F 19.8 °F 19.4 °F 64% 30.23 in 10.0 mi South 13.8 mph - N/A   Mostly Cloudy
2:55 PM 28.4 °F 17.5 °F 17.6 °F 64% 30.23 in 10.0 mi SSW 13.8 mph - N/A   Scattered Clouds
3:15 PM 28.4 °F 18.5 °F 17.6 °F 64% 30.24 in 10.0 mi SSW 11.5 mph 17.3 mph N/A   Clear
3:35 PM 28.4 °F 19.1 °F 17.6 °F 64% 30.22 in 10.0 mi South 10.4 mph - N/A   Scattered Clouds
3:55 PM 28.4 °F 19.7 °F 15.8 °F 59% 30.22 in 10.0 mi SSW 9.2 mph - N/A   Mostly Cloudy
4:15 PM 26.6 °F 17.5 °F 14.0 °F 59% 30.23 in 10.0 mi South 9.2 mph - N/A   Mostly Cloudy
4:35 PM 26.6 °F 16.8 °F 15.8 °F 64% 30.24 in 10.0 mi South 10.4 mph - N/A   Mostly Cloudy
4:55 PM 26.6 °F 17.5 °F 14.0 °F 59% 30.23 in 10.0 mi South 9.2 mph - N/A   Mostly Cloudy
5:15 PM 26.6 °F 17.5 °F 15.8 °F 64% 30.23 in 10.0 mi South 9.2 mph - N/A   Overcast
5:35 PM 24.8 °F 17.9 °F 15.8 °F 69% 30.23 in 10.0 mi SSE 5.8 mph - N/A   Mostly Cloudy
5:55 PM 24.8 °F 16.9 °F 15.8 °F 69% 30.23 in 10.0 mi SSE 6.9 mph - N/A   Overcast
6:15 PM 24.8 °F 19.1 °F 15.8 °F 69% 30.23 in 10.0 mi South 4.6 mph - N/A   Overcast
6:35 PM 24.8 °F - 14.0 °F 64% 30.23 in 10.0 mi Calm Calm - N/A   Overcast
6:55 PM 24.8 °F 17.9 °F 14.0 °F 64% 30.23 in 10.0 mi SSE 5.8 mph - N/A   Overcast
7:15 PM 24.8 °F 16.9 °F 15.8 °F 69% 30.24 in 10.0 mi SSE 6.9 mph - N/A   Overcast
7:35 PM 24.8 °F 17.9 °F 15.8 °F 69% 30.24 in 10.0 mi SSE 5.8 mph - N/A   Overcast
7:55 PM 24.8 °F 17.9 °F 15.8 °F 69% 30.25 in 10.0 mi SSE 5.8 mph - N/A   Overcast
8:15 PM 24.8 °F 17.9 °F 14.0 °F 64% 30.25 in 10.0 mi SSE 5.8 mph - N/A   Overcast
8:35 PM 24.8 °F 17.9 °F 14.0 °F 64% 30.26 in 10.0 mi South 5.8 mph - N/A   Overcast
8:55 PM 23.0 °F 18.4 °F 14.0 °F 68% 30.26 in 10.0 mi SSE 3.5 mph - N/A   Overcast
9:15 PM 23.0 °F 17.0 °F 14.0 °F 68% 30.27 in 10.0 mi SSE 4.6 mph - N/A   Overcast
9:35 PM 23.0 °F 14.7 °F 15.8 °F 74% 30.27 in 10.0 mi SSE 6.9 mph - N/A   Overcast
9:55 PM 23.0 °F 14.7 °F 14.0 °F 68% 30.28 in 10.0 mi South 6.9 mph - N/A   Overcast
10:15 PM 23.0 °F 17.0 °F 14.0 °F 68% 30.29 in 10.0 mi South 4.6 mph - N/A   Overcast
10:35 PM 23.0 °F 15.8 °F 14.0 °F 68% 30.29 in 10.0 mi South 5.8 mph - N/A   Overcast
10:55 PM 23.0 °F 15.8 °F 14.0 °F 68% 30.29 in 10.0 mi SSE 5.8 mph - N/A   Overcast
11:15 PM 23.0 °F 14.7 °F 12.2 °F 63% 30.29 in 10.0 mi SSE 6.9 mph - N/A   Overcast
11:35 PM 23.0 °F 15.8 °F 12.2 °F 63% 30.29 in 10.0 mi South 5.8 mph - N/A   Overcast
11:55 PM 23.0 °F 13.1 °F 14.0 °F 68% 30.29 in 10.0 mi South 9.2 mph - N/A   Overcast